Time;durP1;ratioP1;P1;durP2;ratioP2;P2;SDS_P1;SDS_P2;PMS_P1;PMS_P2;Temp;Humidity;BMP_temperature;BMP_pressure;BME280_temperature;BME280_humidity;BME280_pressure;Samples;Min_cycle;Max_cycle;Signal;HPM_P1;HPM_P2
2023/09/23 00:00:07;;;;;;;4.82;2.95;;;;;;;19.53;68.58;93615.78;527485;28;956;-43
2023/09/23 00:00:23;;;;;;;5.22;3.30;;;;;;;19.51;68.63;93610.06;528119;28;932;-43
2023/09/23 00:00:40;;;;;;;4.43;3.08;;;;;;;19.51;68.69;93612.88;528097;28;1203;-43
2023/09/23 00:00:55;;;;;;;3.75;2.90;;;;;;;19.50;68.56;93614.22;528171;28;929;-43
2023/09/23 00:01:11;;;;;;;4.07;2.90;;;;;;;19.49;68.65;93612.72;526267;28;921;-43
2023/09/23 00:01:26;;;;;;;3.80;2.80;;;;;;;19.48;68.77;93611.28;526183;28;790;-43
2023/09/23 00:01:41;;;;;;;4.03;3.00;;;;;;;19.49;68.77;93614.81;526087;28;916;-43
2023/09/23 00:01:57;;;;;;;5.15;3.22;;;;;;;19.49;68.76;93615.53;527710;28;809;-43
2023/09/23 00:02:12;;;;;;;4.83;3.37;;;;;;;19.49;68.88;93612.03;528049;28;1160;-43
2023/09/23 00:02:28;;;;;;;4.60;3.30;;;;;;;19.48;68.85;93614.09;528212;28;777;-43
2023/09/23 00:02:43;;;;;;;7.38;3.15;;;;;;;19.48;68.85;93616.88;527475;28;1813;-43
2023/09/23 00:02:59;;;;;;;7.27;2.90;;;;;;;19.48;68.87;93608.47;526708;28;814;-43
2023/09/23 00:03:15;;;;;;;4.53;2.85;;;;;;;19.48;68.97;93614.09;526087;28;903;-43
2023/09/23 00:03:33;;;;;;;4.50;3.25;;;;;;;19.49;68.96;93603.63;526373;28;1251;-43
2023/09/23 00:03:49;;;;;;;4.35;3.17;;;;;;;19.48;69.03;93611.28;528128;28;1347;-43
2023/09/23 00:04:05;;;;;;;4.97;3.28;;;;;;;19.48;69.08;93614.09;528167;28;1683;-43
2023/09/23 00:04:20;;;;;;;5.13;3.33;;;;;;;19.48;69.20;93616.16;528158;28;1320;-44
2023/09/23 00:04:36;;;;;;;5.17;3.10;;;;;;;19.48;69.25;93611.28;528292;28;880;-43
2023/09/23 00:04:51;;;;;;;5.75;3.00;;;;;;;19.48;69.39;93613.34;527965;28;1088;-43
2023/09/23 00:05:09;;;;;;;5.10;2.90;;;;;;;19.48;69.29;93600.09;528235;28;1198;-43
2023/09/23 00:05:26;;;;;;;5.00;2.92;;;;;;;19.45;69.19;93609.69;527279;28;1435;-43
2023/09/23 00:05:43;;;;;;;5.50;2.97;;;;;;;19.46;69.38;93611.16;526025;28;901;-43
2023/09/23 00:06:00;;;;;;;4.85;2.80;;;;;;;19.45;69.35;93612.47;527831;28;1914;-43
2023/09/23 00:06:15;;;;;;;4.35;3.03;;;;;;;19.44;69.40;93611.03;528117;28;1057;-43
2023/09/23 00:06:31;;;;;;;4.70;3.20;;;;;;;19.44;69.39;93611.03;527659;28;1104;-43
2023/09/23 00:06:49;;;;;;;4.97;3.03;;;;;;;19.44;69.43;93604.69;527865;28;849;-43
2023/09/23 00:07:04;;;;;;;5.45;2.83;;;;;;;19.43;69.51;93612.34;525718;28;921;-43
2023/09/23 00:07:20;;;;;;;4.80;2.88;;;;;;;19.44;69.39;93622.22;526000;28;994;-43
2023/09/23 00:07:36;;;;;;;4.03;2.97;;;;;;;19.43;69.49;93615.16;527848;28;951;-43
2023/09/23 00:07:52;;;;;;;4.13;3.08;;;;;;;19.42;69.39;93610.91;528066;28;906;-43
2023/09/23 00:08:08;;;;;;;4.13;3.28;;;;;;;19.43;69.26;93608.81;526840;28;1048;-43
2023/09/23 00:08:23;;;;;;;4.72;3.30;;;;;;;19.43;69.29;93611.63;526064;28;917;-43
2023/09/23 00:08:43;;;;;;;4.27;2.73;;;;;;;19.41;69.44;93606.63;526107;28;889;-43
2023/09/23 00:09:00;;;;;;;3.42;2.65;;;;;;;19.41;69.45;93611.50;527768;28;1107;-43
2023/09/23 00:09:17;;;;;;;4.18;2.90;;;;;;;19.40;69.44;93610.78;526121;28;1057;-43
2023/09/23 00:09:32;;;;;;;5.22;3.13;;;;;;;19.41;69.32;93615.03;526671;28;947;-43
2023/09/23 00:09:47;;;;;;;4.70;2.97;;;;;;;19.40;69.25;93613.56;528216;28;998;-43
2023/09/23 00:10:08;;;;;;;4.07;2.83;;;;;;;19.41;69.18;93617.81;528164;28;970;-43
2023/09/23 00:10:23;;;;;;;4.05;2.75;;;;;;;19.41;69.23;93611.50;528197;28;1099;-43
2023/09/23 00:10:39;;;;;;;6.73;3.10;;;;;;;19.40;69.06;93610.78;527632;28;869;-43
2023/09/23 00:10:54;;;;;;;7.90;2.92;;;;;;;19.39;69.13;93612.09;527183;28;878;-43
2023/09/23 00:11:09;;;;;;;7.77;2.77;;;;;;;19.40;69.12;93621.97;528110;28;1065;-43
2023/09/23 00:11:25;;;;;;;6.57;2.80;;;;;;;19.40;69.07;93618.44;528238;28;943;-43
2023/09/23 00:11:40;;;;;;;3.95;2.97;;;;;;;19.39;68.96;93620.50;528167;28;885;-42
2023/09/23 00:11:56;;;;;;;3.73;2.93;;;;;;;19.36;68.88;93616.09;528211;28;856;-43
2023/09/23 00:12:12;;;;;;;3.40;2.70;;;;;;;19.37;68.75;93619.63;528149;28;1633;-43
2023/09/23 00:12:30;;;;;;;3.70;2.70;;;;;;;19.37;68.96;93614.78;528118;28;884;-43
2023/09/23 00:12:46;;;;;;;3.47;2.78;;;;;;;19.37;68.89;93619.63;528186;28;897;-43
2023/09/23 00:13:01;;;;;;;5.57;2.97;;;;;;;19.37;68.79;93616.84;528118;28;845;-43
2023/09/23 00:13:18;;;;;;;6.33;3.03;;;;;;;19.38;68.61;93619.03;528240;28;872;-43
2023/09/23 00:13:34;;;;;;;4.88;3.00;;;;;;;19.39;68.57;93620.50;528190;28;826;-43
2023/09/23 00:13:49;;;;;;;3.95;2.72;;;;;;;19.39;68.49;93626.09;528164;28;801;-43
2023/09/23 00:14:05;;;;;;;3.53;2.80;;;;;;;19.39;68.35;93620.50;528107;28;1038;-43
2023/09/23 00:14:20;;;;;;;4.93;2.95;;;;;;;19.39;68.39;93620.50;528045;28;1044;-43
2023/09/23 00:14:36;;;;;;;4.67;2.80;;;;;;;19.38;68.26;93627.41;527245;28;958;-43
2023/09/23 00:14:54;;;;;;;3.03;2.70;;;;;;;19.38;68.42;93618.31;526775;28;1131;-43
2023/09/23 00:15:13;;;;;;;3.13;2.63;;;;;;;19.39;68.32;93620.50;528191;28;892;-43
2023/09/23 00:15:28;;;;;;;3.50;3.05;;;;;;;19.37;68.24;93614.03;528245;28;813;-43
2023/09/23 00:15:44;;;;;;;3.25;2.95;;;;;;;19.37;68.26;93614.78;526174;28;916;-43
2023/09/23 00:16:03;;;;;;;2.85;2.50;;;;;;;19.37;68.27;93616.84;527959;28;1008;-43
2023/09/23 00:16:19;;;;;;;3.72;2.35;;;;;;;19.37;68.30;93622.44;526120;28;873;-43
2023/09/23 00:16:34;;;;;;;4.15;2.65;;;;;;;19.36;68.33;93624.50;526103;28;1666;-43
2023/09/23 00:16:50;;;;;;;6.45;3.03;;;;;;;19.36;68.24;93621.69;526226;28;1010;-43
2023/09/23 00:17:06;;;;;;;6.20;2.90;;;;;;;19.36;68.27;93627.28;528212;28;1140;-43
2023/09/23 00:17:21;;;;;;;2.95;2.50;;;;;;;19.35;68.26;93620.25;528150;28;889;-43
2023/09/23 00:17:38;;;;;;;3.10;2.80;;;;;;;19.34;68.10;93624.38;528071;28;1797;-43
2023/09/23 00:17:55;;;;;;;5.00;3.28;;;;;;;19.34;68.21;93623.63;527548;28;1080;-43
2023/09/23 00:18:11;;;;;;;6.22;3.30;;;;;;;19.34;68.17;93624.38;526032;28;858;-43
2023/09/23 00:18:26;;;;;;;5.47;2.83;;;;;;;19.33;68.14;93628.50;526151;28;951;-43
2023/09/23 00:18:45;;;;;;;3.77;2.70;;;;;;;19.33;68.19;93622.88;527328;28;1165;-43
2023/09/23 00:19:02;;;;;;;4.40;2.50;;;;;;;19.31;68.06;93617.16;526015;28;825;-43
2023/09/23 00:19:17;;;;;;;4.20;2.17;;;;;;;19.33;67.73;93622.88;526152;28;862;-43
2023/09/23 00:19:34;;;;;;;3.73;2.17;;;;;;;19.34;67.77;93629.22;526020;28;833;-43
2023/09/23 00:19:49;;;;;;;4.47;2.92;;;;;;;19.34;67.79;93623.63;526829;28;913;-43
2023/09/23 00:20:16;;;;;;;4.33;3.13;;;;;;;19.33;67.66;93624.94;528095;28;1120;-43
2023/09/23 00:20:32;;;;;;;3.30;2.47;;;;;;;19.32;67.81;93621.41;528060;28;902;-44
2023/09/23 00:20:48;;;;;;;3.67;3.00;;;;;;;19.32;67.95;93624.22;528040;28;1654;-43
2023/09/23 00:21:07;;;;;;;4.32;3.20;;;;;;;19.31;68.00;93624.81;526042;28;801;-43
2023/09/23 00:21:23;;;;;;;5.18;3.22;;;;;;;19.29;67.94;93627.50;526126;28;1227;-43
2023/09/23 00:21:38;;;;;;;5.40;3.60;;;;;;;19.29;67.87;93625.44;527771;28;1101;-43
2023/09/23 00:21:54;;;;;;;4.65;3.13;;;;;;;19.28;67.84;93626.75;528427;28;936;-44
2023/09/23 00:22:12;;;;;;;3.70;2.70;;;;;;;19.28;67.62;93621.16;528496;28;1037;-43
2023/09/23 00:22:28;;;;;;;3.67;2.83;;;;;;;19.26;67.78;93618.22;528454;28;917;-43
2023/09/23 00:22:46;;;;;;;3.77;2.80;;;;;;;19.27;67.79;93628.09;528376;28;880;-43
2023/09/23 00:23:05;;;;;;;3.33;2.75;;;;;;;19.26;67.92;93621.03;528181;28;1033;-43
2023/09/23 00:23:21;;;;;;;4.32;2.85;;;;;;;19.24;67.79;93625.75;527942;28;1757;-44
2023/09/23 00:23:37;;;;;;;4.70;2.80;;;;;;;19.25;67.95;93627.94;527365;28;876;-43
2023/09/23 00:23:52;;;;;;;3.53;2.70;;;;;;;19.25;67.98;93627.94;527761;28;816;-43
2023/09/23 00:24:08;;;;;;;2.88;2.63;;;;;;;19.26;67.79;93625.88;526354;28;1394;-43
2023/09/23 00:24:23;;;;;;;3.73;2.70;;;;;;;19.24;67.82;93620.91;528513;28;883;-43
2023/09/23 00:24:39;;;;;;;6.55;3.13;;;;;;;19.23;67.87;93625.03;528418;28;1152;-43
2023/09/23 00:24:54;;;;;;;7.10;3.03;;;;;;;19.23;67.94;93629.91;528484;28;876;-43
2023/09/23 00:25:10;;;;;;;5.00;2.93;;;;;;;19.22;68.11;93617.22;528521;28;916;-43
2023/09/23 00:25:25;;;;;;;4.18;2.90;;;;;;;19.22;68.31;93622.81;528249;28;809;-44
2023/09/23 00:25:40;;;;;;;3.67;2.40;;;;;;;19.20;68.31;93619.91;526408;28;845;-43
2023/09/23 00:25:56;;;;;;;2.58;2.30;;;;;;;19.20;68.20;93620.63;527690;28;1959;-43
2023/09/23 00:26:16;;;;;;;2.77;2.40;;;;;;;19.19;68.04;93626.84;528387;28;1108;-43
2023/09/23 00:26:32;;;;;;;3.55;2.35;;;;;;;19.18;68.18;93623.31;526381;28;909;-43
2023/09/23 00:26:48;;;;;;;3.90;2.43;;;;;;;19.18;68.18;93616.97;526686;28;864;-43
2023/09/23 00:27:04;;;;;;;5.10;3.00;;;;;;;19.17;68.19;93619.03;526334;28;1291;-44
2023/09/23 00:27:19;;;;;;;5.43;3.10;;;;;;;19.16;68.29;93620.38;528529;28;841;-43
2023/09/23 00:27:35;;;;;;;3.43;2.70;;;;;;;19.15;68.34;93618.91;527040;28;1301;-42
2023/09/23 00:27:54;;;;;;;2.88;2.60;;;;;;;19.14;68.58;93620.25;527230;28;1214;-42
2023/09/23 00:28:11;;;;;;;3.53;2.80;;;;;;;19.14;68.52;93611.13;526771;28;943;-42
2023/09/23 00:28:28;;;;;;;5.05;2.92;;;;;;;19.15;68.64;93613.31;528538;28;996;-42
2023/09/23 00:28:45;;;;;;;4.50;2.88;;;;;;;19.14;68.58;93611.13;527771;28;860;-42
2023/09/23 00:29:01;;;;;;;3.80;2.65;;;;;;;19.14;68.51;93611.13;528076;28;1105;-43
2023/09/23 00:29:17;;;;;;;4.33;2.90;;;;;;;19.13;68.57;93615.22;528461;28;908;-43
2023/09/23 00:29:32;;;;;;;5.13;2.92;;;;;;;19.13;68.51;93615.97;528512;28;891;-43
2023/09/23 00:29:49;;;;;;;5.57;2.97;;;;;;;19.13;68.63;93613.19;528454;28;1068;-43
2023/09/23 00:30:05;;;;;;;5.60;3.15;;;;;;;19.13;68.58;93615.22;526456;28;856;-43
2023/09/23 00:30:22;;;;;;;5.50;3.17;;;;;;;19.12;68.69;93613.78;526355;28;877;-43
2023/09/23 00:30:38;;;;;;;4.35;3.17;;;;;;;19.12;68.68;93616.59;527421;28;1054;-43
2023/09/23 00:30:53;;;;;;;4.37;3.07;;;;;;;19.00;68.76;93596.94;527521;28;868;-43
2023/09/23 00:31:11;;;;;;;6.30;2.70;;;;;;;19.11;68.73;93613.03;526436;28;805;-43
2023/09/23 00:31:29;;;;;;;5.00;2.58;;;;;;;19.10;68.95;93608.78;526382;28;836;-43
2023/09/23 00:31:44;;;;;;;4.80;2.80;;;;;;;19.11;68.73;93606.72;526382;28;884;-43
2023/09/23 00:32:00;;;;;;;6.23;2.80;;;;;;;19.10;68.84;93608.78;528187;28;868;-43
2023/09/23 00:32:17;;;;;;;4.70;3.03;;;;;;;19.10;68.78;93611.56;526363;28;934;-43
2023/09/23 00:32:32;;;;;;;5.28;3.30;;;;;;;19.10;68.94;93614.38;526344;28;1027;-43
2023/09/23 00:32:48;;;;;;;5.72;3.05;;;;;;;19.10;68.77;93617.16;526675;28;816;-43
2023/09/23 00:33:04;;;;;;;5.23;2.90;;;;;;;19.10;68.77;93608.78;526258;28;853;-42
2023/09/23 00:33:20;;;;;;;4.25;2.75;;;;;;;19.06;68.82;93602.91;526446;28;812;-43
2023/09/23 00:33:39;;;;;;;3.65;2.72;;;;;;;19.09;68.78;93614.97;527186;28;1066;-43
2023/09/23 00:33:54;;;;;;;4.10;3.13;;;;;;;19.09;68.72;93610.13;528328;28;915;-43
2023/09/23 00:34:09;;;;;;;4.63;3.20;;;;;;;19.09;68.92;93612.19;528505;28;800;-43
2023/09/23 00:34:25;;;;;;;5.00;3.20;;;;;;;19.09;68.70;93618.50;528144;28;828;-42
2023/09/23 00:34:40;;;;;;;4.43;3.00;;;;;;;19.09;68.79;93615.72;526074;28;2554;-43
2023/09/23 00:34:56;;;;;;;5.77;3.03;;;;;;;19.09;68.91;93607.31;527576;28;880;-43
2023/09/23 00:35:12;;;;;;;6.10;3.05;;;;;;;19.09;68.90;93610.13;528253;28;1101;-43
2023/09/23 00:35:28;;;;;;;5.27;3.10;;;;;;;19.09;68.96;93612.91;527845;28;917;-42
2023/09/23 00:35:44;;;;;;;4.20;2.90;;;;;;;19.10;68.85;93608.78;528286;28;912;-42
2023/09/23 00:36:00;;;;;;;4.13;2.60;;;;;;;19.09;68.82;93610.13;527839;28;852;-43
2023/09/23 00:36:15;;;;;;;4.45;2.80;;;;;;;19.08;68.83;93607.94;528381;28;797;-42
2023/09/23 00:36:31;;;;;;;4.43;2.97;;;;;;;19.08;68.77;93610.72;527330;28;1124;-43
2023/09/23 00:36:46;;;;;;;5.53;3.30;;;;;;;19.02;68.58;93601.91;528494;28;869;-43
2023/09/23 00:37:02;;;;;;;4.60;3.22;;;;;;;19.06;68.74;93605.72;528113;27;945;-43
2023/09/23 00:37:18;;;;;;;4.00;3.00;;;;;;;18.99;68.58;93601.06;528520;28;819;-43
2023/09/23 00:37:33;;;;;;;4.38;2.88;;;;;;;19.03;68.54;93606.19;528377;28;916;-43
2023/09/23 00:37:49;;;;;;;3.50;2.70;;;;;;;19.06;68.53;93607.78;528422;28;789;-43
2023/09/23 00:38:06;;;;;;;4.07;2.85;;;;;;;19.06;68.57;93613.41;528362;28;1073;-42
2023/09/23 00:38:22;;;;;;;5.50;3.25;;;;;;;19.05;68.61;93612.66;528416;28;846;-43
2023/09/23 00:38:38;;;;;;;6.50;3.17;;;;;;;19.04;68.56;93613.25;527300;28;1549;-42
2023/09/23 00:38:55;;;;;;;4.73;2.87;;;;;;;19.02;68.64;93607.50;527573;28;952;-43
2023/09/23 00:39:11;;;;;;;3.75;3.15;;;;;;;19.02;68.67;93610.31;528473;28;931;-43
2023/09/23 00:39:26;;;;;;;5.30;3.20;;;;;;;19.00;68.70;93610.91;528425;28;832;-43
2023/09/23 00:39:42;;;;;;;6.10;2.97;;;;;;;18.99;68.78;93609.47;528395;28;1389;-43
2023/09/23 00:39:57;;;;;;;5.07;3.00;;;;;;;18.97;68.77;93611.41;528096;28;808;-43
2023/09/23 00:40:17;;;;;;;3.93;3.00;;;;;;;18.94;68.84;93607.72;528085;28;953;-43
2023/09/23 00:40:32;;;;;;;3.42;3.10;;;;;;;18.92;69.07;93613.19;526189;28;912;-43
2023/09/23 00:40:48;;;;;;;3.35;3.05;;;;;;;18.91;69.10;93612.44;526792;28;1498;-43
2023/09/23 00:41:07;;;;;;;3.33;2.90;;;;;;;18.90;69.41;93611.00;527594;28;844;-42
2023/09/23 00:41:25;;;;;;;3.55;2.80;;;;;;;18.89;69.34;93603.19;528358;28;983;-43
2023/09/23 00:41:43;;;;;;;4.00;2.88;;;;;;;18.90;69.60;93611.00;528257;28;1104;-43
2023/09/23 00:41:59;;;;;;;4.63;3.10;;;;;;;18.90;69.60;93608.22;528335;28;852;-43
2023/09/23 00:42:17;;;;;;;4.80;3.23;;;;;;;18.92;69.76;93607.59;528443;28;879;-43
2023/09/23 00:42:32;;;;;;;5.35;3.28;;;;;;;18.91;69.75;93606.84;528373;28;864;-43
2023/09/23 00:42:48;;;;;;;4.77;3.23;;;;;;;18.92;69.64;93604.81;528315;28;880;-43
2023/09/23 00:43:12;;;;;;;3.88;3.17;;;;;;;18.81;69.57;93588.69;526332;28;789;-43
2023/09/23 00:43:27;;;;;;;4.80;3.20;;;;;;;18.91;69.72;93601.25;526377;28;837;-43
2023/09/23 00:43:43;;;;;;;4.17;2.70;;;;;;;18.91;69.48;93606.84;526369;28;840;-43
2023/09/23 00:44:01;;;;;;;4.20;2.92;;;;;;;18.93;69.32;93603.44;528120;28;957;-43
2023/09/23 00:44:16;;;;;;;3.90;3.05;;;;;;;18.91;69.51;93601.25;528494;28;999;-43
2023/09/23 00:44:32;;;;;;;3.90;3.07;;;;;;;18.91;69.51;93601.25;528319;28;864;-42
2023/09/23 00:44:47;;;;;;;4.53;3.03;;;;;;;18.92;69.46;93599.22;528400;27;1085;-43
2023/09/23 00:45:03;;;;;;;3.90;2.80;;;;;;;18.91;69.44;93598.47;526149;28;1694;-43
2023/09/23 00:45:22;;;;;;;4.72;2.83;;;;;;;18.92;69.39;93602.00;526342;28;1169;-43
2023/09/23 00:45:45;;;;;;;5.47;3.03;;;;;;;18.91;69.19;93597.72;526331;28;1023;-42
2023/09/23 00:46:06;;;;;;;4.35;3.03;;;;;;;18.88;69.22;93605.25;527899;28;1933;-43
2023/09/23 00:46:21;;;;;;;5.43;3.22;;;;;;;18.88;69.29;93607.34;528288;28;1129;-43
2023/09/23 00:46:37;;;;;;;4.82;3.33;;;;;;;18.88;69.18;93601.75;528489;28;888;-43
2023/09/23 00:46:53;;;;;;;5.28;3.58;;;;;;;18.89;69.35;93606.00;528293;27;1067;-43
2023/09/23 00:47:09;;;;;;;5.67;3.37;;;;;;;18.88;69.36;93598.94;527450;28;944;-42
2023/09/23 00:47:25;;;;;;;3.88;2.92;;;;;;;18.88;69.43;93605.25;526275;28;943;-42
2023/09/23 00:47:42;;;;;;;4.50;3.03;;;;;;;18.87;69.24;93609.41;526400;28;1761;-43
2023/09/23 00:47:58;;;;;;;4.68;3.30;;;;;;;18.88;69.22;93605.25;526606;28;985;-42
2023/09/23 00:48:18;;;;;;;4.77;3.37;;;;;;;18.89;69.16;93603.19;526208;28;891;-43
2023/09/23 00:48:38;;;;;;;3.78;2.78;;;;;;;18.88;69.14;93605.25;526022;28;893;-43
2023/09/23 00:48:54;;;;;;;4.78;2.80;;;;;;;18.87;68.94;93598.22;526349;28;948;-43
2023/09/23 00:49:09;;;;;;;4.60;3.00;;;;;;;18.87;68.84;93605.84;524083;28;916;-43
2023/09/23 00:49:27;;;;;;;3.25;2.83;;;;;;;18.88;68.97;93605.25;525820;28;1062;-42
2023/09/23 00:49:43;;;;;;;3.20;2.90;;;;;;;18.72;69.03;93581.81;526056;28;942;-43
2023/09/23 00:49:58;;;;;;;4.65;3.05;;;;;;;18.87;68.86;93598.22;525799;28;849;-43
2023/09/23 00:50:20;;;;;;;4.65;2.97;;;;;;;18.88;68.82;93610.13;528120;28;928;-43
2023/09/23 00:50:36;;;;;;;4.68;2.97;;;;;;;18.87;68.92;93603.81;528227;28;895;-43
2023/09/23 00:50:53;;;;;;;4.53;3.00;;;;;;;18.87;68.83;93612.19;527668;28;1749;-43
2023/09/23 00:51:09;;;;;;;5.00;3.00;;;;;;;18.87;68.71;93606.59;528391;28;939;-43
2023/09/23 00:51:25;;;;;;;5.32;2.90;;;;;;;18.86;68.65;93605.13;526381;28;868;-43
2023/09/23 00:51:40;;;;;;;5.50;2.60;;;;;;;18.85;68.39;93602.94;526292;28;1062;-43
2023/09/23 00:51:56;;;;;;;6.13;2.50;;;;;;;18.86;68.39;93604.41;527691;28;880;-43
2023/09/23 00:52:14;;;;;;;6.77;2.87;;;;;;;18.86;68.32;93607.22;528255;28;805;-42
2023/09/23 00:52:29;;;;;;;6.20;3.00;;;;;;;18.85;68.32;93605.72;526119;28;877;-43
2023/09/23 00:52:54;;;;;;;5.53;2.80;;;;;;;18.86;68.37;93610.00;526141;28;911;-43
2023/09/23 00:53:09;;;;;;;3.25;2.88;;;;;;;18.84;68.39;93607.78;526136;28;971;-42
2023/09/23 00:53:25;;;;;;;3.53;2.83;;;;;;;18.84;68.40;93607.78;527165;28;1012;-43
2023/09/23 00:53:42;;;;;;;4.03;2.70;;;;;;;18.80;68.46;93601.19;526863;28;940;-43
2023/09/23 00:53:59;;;;;;;3.47;2.75;;;;;;;18.84;68.17;93615.47;527730;28;955;-43
2023/09/23 00:54:21;;;;;;;4.30;3.08;;;;;;;18.82;68.51;93604.84;528473;28;864;-43
2023/09/23 00:54:40;;;;;;;5.07;2.80;;;;;;;18.83;68.34;93608.41;528434;28;869;-42
2023/09/23 00:54:56;;;;;;;7.18;3.05;;;;;;;18.82;68.53;93610.44;528359;28;1072;-43
2023/09/23 00:55:12;;;;;;;7.10;2.92;;;;;;;18.83;68.60;93614.00;528428;28;828;-43
2023/09/23 00:55:30;;;;;;;5.97;3.17;;;;;;;18.68;68.45;93586.41;528311;28;903;-43
2023/09/23 00:55:48;;;;;;;5.88;3.08;;;;;;;18.81;68.50;93605.47;528184;28;888;-43
2023/09/23 00:56:05;;;;;;;6.15;2.83;;;;;;;18.81;68.55;93606.22;526157;28;869;-43
2023/09/23 00:56:23;;;;;;;6.03;2.85;;;;;;;18.80;68.70;93609.59;524057;28;814;-43
2023/09/23 00:56:38;;;;;;;5.03;2.95;;;;;;;18.80;68.56;93609.59;523868;28;1152;-43
2023/09/23 00:56:54;;;;;;;3.23;2.90;;;;;;;18.79;68.67;93605.34;524024;28;774;-42
2023/09/23 00:57:09;;;;;;;3.15;2.85;;;;;;;18.78;68.83;93607.38;524143;28;840;-43
2023/09/23 00:57:25;;;;;;;3.70;3.20;;;;;;;18.80;68.87;93606.78;524101;28;895;-42
2023/09/23 00:57:41;;;;;;;5.00;3.00;;;;;;;18.77;68.83;93602.41;524252;28;825;-43
2023/09/23 00:58:00;;;;;;;5.38;2.75;;;;;;;18.79;68.92;93605.34;525065;28;1081;-43
2023/09/23 00:58:15;;;;;;;3.83;2.65;;;;;;;18.79;68.90;93605.34;524966;28;884;-43
2023/09/23 00:58:31;;;;;;;3.87;2.83;;;;;;;18.78;68.74;93618.59;523987;28;877;-43
2023/09/23 00:58:47;;;;;;;4.40;3.20;;;;;;;18.79;68.83;93610.94;524219;28;864;-43
2023/09/23 00:59:09;;;;;;;4.93;3.30;;;;;;;18.77;68.91;93605.94;526055;28;945;-43
2023/09/23 00:59:24;;;;;;;3.15;2.50;;;;;;;18.78;68.97;93612.25;527890;28;939;-43
2023/09/23 00:59:40;;;;;;;4.53;2.85;;;;;;;18.77;69.14;93605.19;526219;28;895;-43
2023/09/23 00:59:55;;;;;;;6.18;3.20;;;;;;;18.77;68.96;93605.19;527585;28;892;-43
2023/09/23 01:00:22;;;;;;;5.80;3.13;;;;;;;18.77;69.17;93608.75;528423;28;820;-43
2023/09/23 01:00:43;;;;;;;5.63;3.08;;;;;;;18.77;69.05;93608.75;528371;28;923;-43
2023/09/23 01:00:59;;;;;;;4.70;2.95;;;;;;;18.77;69.12;93600.34;526607;28;1358;-43
2023/09/23 01:01:16;;;;;;;4.50;3.00;;;;;;;18.77;69.08;93608.75;528369;28;847;-43
2023/09/23 01:01:31;;;;;;;3.97;2.90;;;;;;;18.76;69.14;93610.06;528353;27;849;-43
2023/09/23 01:01:48;;;;;;;4.53;2.88;;;;;;;18.76;69.20;93612.13;528345;28;955;-43
2023/09/23 01:02:05;;;;;;;5.65;2.83;;;;;;;18.76;69.34;93607.25;526278;28;896;-43
2023/09/23 01:02:20;;;;;;;6.75;3.15;;;;;;;18.77;69.25;93611.53;526306;28;825;-43
2023/09/23 01:02:37;;;;;;;5.37;3.23;;;;;;;18.77;69.26;93608.75;526308;28;1127;-43
2023/09/23 01:02:56;;;;;;;5.60;3.17;;;;;;;18.77;69.27;93610.78;527210;28;931;-43
2023/09/23 01:03:11;;;;;;;3.72;2.78;;;;;;;18.77;69.21;93605.94;528393;28;904;-42
2023/09/23 01:03:27;;;;;;;3.67;3.00;;;;;;;18.76;69.26;93604.47;528159;28;1685;-43
2023/09/23 01:03:43;;;;;;;5.38;3.40;;;;;;;18.77;69.18;93608.00;528208;28;864;-42
2023/09/23 01:03:58;;;;;;;4.82;3.13;;;;;;;18.76;69.20;93609.31;527055;28;1002;-43
2023/09/23 01:04:14;;;;;;;3.50;3.00;;;;;;;18.75;69.23;93611.38;528237;27;793;-42
2023/09/23 01:04:30;;;;;;;3.60;3.13;;;;;;;18.76;69.42;93612.13;528216;28;868;-43
2023/09/23 01:04:45;;;;;;;5.28;3.55;;;;;;;18.75;69.46;93605.06;528198;28;864;-43
2023/09/23 01:05:01;;;;;;;5.00;3.55;;;;;;;18.76;69.45;93612.13;528118;28;852;-43
2023/09/23 01:05:19;;;;;;;3.63;3.03;;;;;;;18.75;69.29;93608.56;528382;27;872;-42
2023/09/23 01:05:34;;;;;;;3.58;3.03;;;;;;;18.75;69.53;93605.78;528339;28;1148;-43
2023/09/23 01:06:03;;;;;;;4.43;3.33;;;;;;;18.74;69.32;93603.59;528291;28;1102;-42
2023/09/23 01:06:21;;;;;;;3.50;3.13;;;;;;;18.75;69.25;93608.56;527837;28;845;-43
2023/09/23 01:06:37;;;;;;;3.53;2.78;;;;;;;18.73;69.38;93602.84;527694;27;880;-43
2023/09/23 01:06:53;;;;;;;3.92;2.95;;;;;;;18.74;69.16;93601.53;527169;28;920;-43
2023/09/23 01:07:09;;;;;;;5.57;3.15;;;;;;;18.74;69.35;93606.38;527661;28;1267;-43
2023/09/23 01:07:27;;;;;;;5.45;2.95;;;;;;;18.75;69.26;93610.66;527362;28;1535;-43
2023/09/23 01:07:42;;;;;;;3.88;3.13;;;;;;;18.73;69.28;93611.25;528381;27;1007;-42
2023/09/23 01:08:04;;;;;;;4.53;3.10;;;;;;;18.74;69.20;93609.19;528054;28;801;-43
2023/09/23 01:08:20;;;;;;;3.58;2.97;;;;;;;18.73;69.13;93602.84;526673;28;885;-42
2023/09/23 01:08:38;;;;;;;4.55;3.10;;;;;;;18.74;69.02;93606.38;527835;28;876;-43
2023/09/23 01:08:56;;;;;;;4.65;2.90;;;;;;;18.72;69.17;93607.00;528341;28;876;-42
2023/09/23 01:09:19;;;;;;;3.78;2.75;;;;;;;18.76;68.95;93612.13;528240;28;1614;-42
2023/09/23 01:09:35;;;;;;;4.70;2.70;;;;;;;18.75;68.91;93605.78;527470;28;946;-42
2023/09/23 01:09:51;;;;;;;3.60;2.92;;;;;;;18.75;68.86;93607.88;528326;28;849;-43
2023/09/23 01:10:06;;;;;;;3.20;2.90;;;;;;;18.75;68.89;93613.47;526736;28;877;-42
2023/09/23 01:10:22;;;;;;;3.40;2.88;;;;;;;18.74;68.80;93609.19;526035;28;834;-43
2023/09/23 01:10:39;;;;;;;3.92;2.90;;;;;;;18.73;68.77;93607.72;524038;28;872;-43
2023/09/23 01:10:54;;;;;;;3.72;2.65;;;;;;;18.73;68.65;93614.03;525222;28;860;-43
2023/09/23 01:11:10;;;;;;;3.45;2.58;;;;;;;18.72;68.62;93611.84;526151;28;805;-43
2023/09/23 01:11:27;;;;;;;3.37;2.67;;;;;;;18.72;68.48;93611.84;526141;28;852;-42
2023/09/23 01:11:43;;;;;;;3.47;2.70;;;;;;;18.71;68.42;93613.19;526062;28;975;-43
2023/09/23 01:12:00;;;;;;;4.25;2.70;;;;;;;18.60;68.42;93597.06;526968;28;853;-43
2023/09/23 01:12:17;;;;;;;5.72;2.55;;;;;;;18.70;68.49;93608.91;528244;28;849;-43
2023/09/23 01:12:32;;;;;;;4.35;2.67;;;;;;;18.70;68.56;93614.50;528242;28;1032;-43
2023/09/23 01:12:47;;;;;;;4.60;2.83;;;;;;;18.71;68.35;93613.19;526896;28;1186;-43
2023/09/23 01:13:06;;;;;;;3.83;2.90;;;;;;;18.71;68.23;93616.00;528254;27;1017;-42
2023/09/23 01:13:29;;;;;;;4.88;3.10;;;;;;;18.71;68.23;93618.78;526157;28;880;-42
2023/09/23 01:13:45;;;;;;;5.25;2.90;;;;;;;18.70;67.45;93620.09;526240;28;1762;-43
2023/09/23 01:14:02;;;;;;;3.25;2.45;;;;;;;18.70;67.32;93614.50;527891;28;889;-43
2023/09/23 01:14:21;;;;;;;2.60;2.38;;;;;;;18.70;66.90;93620.09;528448;27;1764;-43
2023/09/23 01:14:37;;;;;;;2.78;2.25;;;;;;;18.68;66.88;93612.31;528314;28;1243;-43
2023/09/23 01:14:58;;;;;;;3.65;2.58;;;;;;;18.68;66.77;93617.19;527892;28;940;-42
2023/09/23 01:15:18;;;;;;;4.15;2.70;;;;;;;18.68;66.92;93611.59;528417;28;927;-43
2023/09/23 01:15:46;;;;;;;3.70;2.78;;;;;;;18.66;67.00;93609.41;527327;28;841;-43
2023/09/23 01:16:06;;;;;;;4.35;2.97;;;;;;;18.65;67.15;93612.78;528037;28;1025;-43
2023/09/23 01:16:22;;;;;;;3.72;2.83;;;;;;;18.65;67.44;93612.78;527809;28;884;-42
2023/09/23 01:16:37;;;;;;;4.20;2.80;;;;;;;18.64;67.51;93614.13;526363;28;881;-43
2023/09/23 01:16:53;;;;;;;4.93;2.77;;;;;;;18.64;67.48;93608.53;526246;28;935;-43
2023/09/23 01:17:14;;;;;;;7.10;2.73;;;;;;;18.62;67.63;93611.94;526317;28;813;-42
2023/09/23 01:17:30;;;;;;;7.07;2.65;;;;;;;18.60;67.53;93619.44;527113;28;1607;-42
2023/09/23 01:17:47;;;;;;;4.33;2.73;;;;;;;18.59;67.54;93613.13;528467;28;761;-42
2023/09/23 01:18:06;;;;;;;5.20;3.10;;;;;;;18.56;67.51;93611.50;526129;27;855;-43
2023/09/23 01:18:23;;;;;;;5.20;3.10;;;;;;;18.56;67.58;93608.00;526190;28;1091;-42
2023/09/23 01:18:40;;;;;;;2.97;2.50;;;;;;;18.55;67.63;93615.63;526331;28;935;-42
2023/09/23 01:18:55;;;;;;;3.83;2.60;;;;;;;18.54;67.62;93616.97;526229;28;824;-43
2023/09/23 01:19:14;;;;;;;4.50;2.70;;;;;;;18.49;67.70;93612.44;526377;28;1136;-42
2023/09/23 01:19:29;;;;;;;4.60;2.80;;;;;;;18.51;67.90;93623.03;526851;28;944;-43
2023/09/23 01:19:45;;;;;;;4.28;2.70;;;;;;;18.50;67.89;93613.91;528338;28;810;-42
2023/09/23 01:20:00;;;;;;;4.10;2.50;;;;;;;18.50;68.06;93625.06;526531;28;880;-42
2023/09/23 01:20:16;;;;;;;4.47;2.70;;;;;;;18.50;68.00;93624.34;526280;28;872;-43
2023/09/23 01:20:31;;;;;;;5.68;3.17;;;;;;;18.49;68.14;93623.63;526962;28;1308;-42
2023/09/23 01:20:51;;;;;;;5.33;3.20;;;;;;;18.48;68.17;93616.56;528462;28;785;-42
2023/09/23 01:21:08;;;;;;;3.92;2.90;;;;;;;18.49;68.34;93622.88;526986;28;860;-42
2023/09/23 01:21:23;;;;;;;4.03;2.97;;;;;;;18.48;68.43;93619.34;528292;28;888;-43